METAR
LICR 191250Z 36011KT 9999 SCT030 17/10 Q1020
TAF